Бирюзовое

Карта отелей и гостиниц, располагающихся рядом с аэропортом Бирюзовое :

Бирюзовое Челябинская область 54° 48' 53.3016" N, 61° 22' 46.2108" E
Бирюзовое Челябинская область 54° 48' 53.3016" N, 61° 22' 46.2108" E
Код аэродрома ИКАО: 
ZF7Z
Код аэродрома RU: 
ЗФ7З
Координаты: 
N54.81481° E061.37950°
Превышение над уровнем моря : 
243
Основная полоса: 
12/30
Курс магнитный: 
124,3/304,3
Длина основной ВПП: 
560
Ширина основной ВПП: 
60
Покрытие основной ВПП: 
Нетвёрдое (грунт)
Тип: 
Аэродром
Освещение ВПП: 
Нет
Класс аэродрома: 
Статус: 
Недействующий
Принадлежность: 
АОН
Сайт: 
E-mail аэродрома: 
Страна: 
Россия
Регион: 
Челябинская область
Город: 
Дополнительная информация: 
Владелец ПП: нет данных. Базируются два ВС (Ан-2).

Найти трансфер

С помощью этой формы Вы можете найти трансфер из аэропорта Бирюзовое в город, аэропорт или вокзал:

Карта места

Javascript is required to view this map.

Погода в аэропортах:

Авиационная погода в Закаталы

Регион: 
Погода METAR: 
UBBY 141800Z 08012KT 9999 VCTS SCT050CB BKN100 26/18 Q1013 R33/////// NOSIG RMK MT OP
Время наблюдения: 
2020-07-14T18:00:00Z
Температура C: 
26.0
Точка росы: 
18.0
Направление ветра: 
80
Скорость ветра: 
12
Метеорологическая видимость: 
6.21
Явления погоды: 
VCTS
Условия полета: 
VFR

Авиационная погода в Челябинске

Регион: 
Погода METAR: 
USCC 141730Z 11003MPS 5000 FU FEW040CB 26/14 Q1017 R09/000060 NOSIG RMK QFE742
Время наблюдения: 
2020-07-14T17:30:00Z
Температура C: 
26.0
Точка росы: 
14.0
Направление ветра: 
110
Скорость ветра: 
6
Метеорологическая видимость: 
3.11
Явления погоды: 
FU
Условия полета: 
MVFR
Аэропорт подробнее: 

Авиационная погода в аэропорту Сокол

Регион: 
Погода METAR: 
UHMM 141800Z 00000MPS 0250 0200W R10/0200N FG VV002 09/08 Q0998 RMK QBB060 MT OBSC QFE734 R28/24001MPS
Время наблюдения: 
2020-07-14T18:00:00Z
Температура C: 
9.0
Точка росы: 
8.0
Направление ветра: 
0
Скорость ветра: 
0
Метеорологическая видимость: 
0.16
Явления погоды: 
FG
Условия полета: 
LIFR
Аэропорт подробнее: 

Авиационная погода в Москве - Остафьево

Регион: 
Погода METAR: 
UUMO 141730Z 04010MPS 9999 -TSRA BKN011CB 17/17 Q0999 R08/250350 NOSIG RMK QFE735/0980
Время наблюдения: 
2020-07-14T17:30:00Z
Температура C: 
17.0
Точка росы: 
17.0
Направление ветра: 
40
Скорость ветра: 
19
Метеорологическая видимость: 
6.21
Явления погоды: 
-TSRA
Условия полета: 
MVFR
Аэропорт подробнее: